sensor_id;sensor_type;location;lat;lon;timestamp;P1;durP1;ratioP1;P2;durP2;ratioP2
64186;SDS011;50491;39.484;-8.540;2023-08-17T00:00:56;2.63;;;1.60;;
64186;SDS011;50491;39.484;-8.540;2023-08-17T00:03:15;3.90;;;1.23;;
64186;SDS011;50491;39.484;-8.540;2023-08-17T00:05:16;1.35;;;1.10;;
64186;SDS011;50491;39.484;-8.540;2023-08-17T00:07:17;2.50;;;1.67;;
64186;SDS011;50491;39.484;-8.540;2023-08-17T00:09:36;1.80;;;1.33;;
64186;SDS011;50491;39.484;-8.540;2023-08-17T00:11:37;3.42;;;1.20;;
64186;SDS011;50491;39.484;-8.540;2023-08-17T00:13:37;5.97;;;1.17;;
64186;SDS011;50491;39.484;-8.540;2023-08-17T00:15:38;2.13;;;1.38;;
64186;SDS011;50491;39.484;-8.540;2023-08-17T00:17:39;1.27;;;1.17;;
64186;SDS011;50491;39.484;-8.540;2023-08-17T00:24:36;3.63;;;1.27;;
64186;SDS011;50491;39.484;-8.540;2023-08-17T00:27:02;1.95;;;1.27;;
64186;SDS011;50491;39.484;-8.540;2023-08-17T00:29:04;4.57;;;1.50;;
64186;SDS011;50491;39.484;-8.540;2023-08-17T00:31:04;3.33;;;1.48;;
64186;SDS011;50491;39.484;-8.540;2023-08-17T00:33:05;3.30;;;1.40;;
64186;SDS011;50491;39.484;-8.540;2023-08-17T00:35:29;2.47;;;1.17;;
64186;SDS011;50491;39.484;-8.540;2023-08-17T00:37:30;5.60;;;1.70;;
64186;SDS011;50491;39.484;-8.540;2023-08-17T00:39:56;4.55;;;1.35;;
64186;SDS011;50491;39.484;-8.540;2023-08-17T00:42:16;6.57;;;1.27;;
64186;SDS011;50491;39.484;-8.540;2023-08-17T00:44:16;3.35;;;1.50;;
64186;SDS011;50491;39.484;-8.540;2023-08-17T00:46:17;11.18;;;1.52;;
64186;SDS011;50491;39.484;-8.540;2023-08-17T00:48:39;4.07;;;1.58;;
64186;SDS011;50491;39.484;-8.540;2023-08-17T00:50:42;5.13;;;1.75;;
64186;SDS011;50491;39.484;-8.540;2023-08-17T00:52:44;3.63;;;1.60;;
64186;SDS011;50491;39.484;-8.540;2023-08-17T00:55:03;4.43;;;1.38;;
64186;SDS011;50491;39.484;-8.540;2023-08-17T00:57:05;2.60;;;1.40;;
64186;SDS011;50491;39.484;-8.540;2023-08-17T00:59:06;1.73;;;1.63;;
64186;SDS011;50491;39.484;-8.540;2023-08-17T01:01:07;4.70;;;1.50;;
64186;SDS011;50491;39.484;-8.540;2023-08-17T01:03:28;4.93;;;1.52;;
64186;SDS011;50491;39.484;-8.540;2023-08-17T01:05:30;3.53;;;1.38;;
64186;SDS011;50491;39.484;-8.540;2023-08-17T01:07:33;5.03;;;1.23;;
64186;SDS011;50491;39.484;-8.540;2023-08-17T01:14:37;2.38;;;1.40;;
64186;SDS011;50491;39.484;-8.540;2023-08-17T01:16:47;2.55;;;1.52;;
64186;SDS011;50491;39.484;-8.540;2023-08-17T01:18:50;4.78;;;1.67;;
64186;SDS011;50491;39.484;-8.540;2023-08-17T01:20:52;4.53;;;1.77;;
64186;SDS011;50491;39.484;-8.540;2023-08-17T01:23:30;3.42;;;1.50;;
64186;SDS011;50491;39.484;-8.540;2023-08-17T01:25:31;4.28;;;1.40;;
64186;SDS011;50491;39.484;-8.540;2023-08-17T01:27:40;4.57;;;1.85;;
64186;SDS011;50491;39.484;-8.540;2023-08-17T01:35:22;3.15;;;1.70;;
64186;SDS011;50491;39.484;-8.540;2023-08-17T01:39:27;3.42;;;1.90;;
64186;SDS011;50491;39.484;-8.540;2023-08-17T01:41:55;3.92;;;1.48;;
64186;SDS011;50491;39.484;-8.540;2023-08-17T01:43:58;4.03;;;1.58;;
64186;SDS011;50491;39.484;-8.540;2023-08-17T01:45:59;4.78;;;1.50;;
64186;SDS011;50491;39.484;-8.540;2023-08-17T01:48:00;5.78;;;1.98;;
64186;SDS011;50491;39.484;-8.540;2023-08-17T01:52:39;4.38;;;1.50;;
64186;SDS011;50491;39.484;-8.540;2023-08-17T01:54:40;3.90;;;1.65;;
64186;SDS011;50491;39.484;-8.540;2023-08-17T01:59:01;3.30;;;1.30;;
64186;SDS011;50491;39.484;-8.540;2023-08-17T02:01:01;4.18;;;1.75;;
64186;SDS011;50491;39.484;-8.540;2023-08-17T02:03:02;3.70;;;1.30;;
64186;SDS011;50491;39.484;-8.540;2023-08-17T02:05:22;3.40;;;1.52;;
64186;SDS011;50491;39.484;-8.540;2023-08-17T02:07:22;7.18;;;2.03;;
64186;SDS011;50491;39.484;-8.540;2023-08-17T02:09:23;6.43;;;1.75;;
64186;SDS011;50491;39.484;-8.540;2023-08-17T02:11:42;3.08;;;1.38;;
64186;SDS011;50491;39.484;-8.540;2023-08-17T02:13:43;7.95;;;1.60;;
64186;SDS011;50491;39.484;-8.540;2023-08-17T02:15:44;4.63;;;1.33;;
64186;SDS011;50491;39.484;-8.540;2023-08-17T02:18:03;2.28;;;1.30;;
64186;SDS011;50491;39.484;-8.540;2023-08-17T02:20:04;2.42;;;1.50;;
64186;SDS011;50491;39.484;-8.540;2023-08-17T02:22:24;4.55;;;1.77;;
64186;SDS011;50491;39.484;-8.540;2023-08-17T02:24:43;2.78;;;1.30;;
64186;SDS011;50491;39.484;-8.540;2023-08-17T02:26:46;5.50;;;2.35;;
64186;SDS011;50491;39.484;-8.540;2023-08-17T02:29:05;5.28;;;1.58;;
64186;SDS011;50491;39.484;-8.540;2023-08-17T02:31:06;4.90;;;1.30;;
64186;SDS011;50491;39.484;-8.540;2023-08-17T02:33:25;1.48;;;1.35;;
64186;SDS011;50491;39.484;-8.540;2023-08-17T02:35:25;4.07;;;1.77;;
64186;SDS011;50491;39.484;-8.540;2023-08-17T02:37:27;1.48;;;1.30;;
64186;SDS011;50491;39.484;-8.540;2023-08-17T02:39:46;3.80;;;1.20;;
64186;SDS011;50491;39.484;-8.540;2023-08-17T02:41:47;5.10;;;1.70;;
64186;SDS011;50491;39.484;-8.540;2023-08-17T02:44:08;2.20;;;1.38;;
64186;SDS011;50491;39.484;-8.540;2023-08-17T02:46:09;2.70;;;1.30;;
64186;SDS011;50491;39.484;-8.540;2023-08-17T02:48:11;1.85;;;1.55;;
64186;SDS011;50491;39.484;-8.540;2023-08-17T02:50:36;3.37;;;1.50;;
64186;SDS011;50491;39.484;-8.540;2023-08-17T02:52:36;2.45;;;1.38;;
64186;SDS011;50491;39.484;-8.540;2023-08-17T02:54:37;4.88;;;1.60;;
64186;SDS011;50491;39.484;-8.540;2023-08-17T02:56:56;2.28;;;1.45;;
64186;SDS011;50491;39.484;-8.540;2023-08-17T02:58:57;2.00;;;1.42;;
64186;SDS011;50491;39.484;-8.540;2023-08-17T03:01:24;2.90;;;1.35;;
64186;SDS011;50491;39.484;-8.540;2023-08-17T03:03:25;3.58;;;1.42;;
64186;SDS011;50491;39.484;-8.540;2023-08-17T03:06:02;3.92;;;1.70;;
64186;SDS011;50491;39.484;-8.540;2023-08-17T03:08:40;2.38;;;1.55;;
64186;SDS011;50491;39.484;-8.540;2023-08-17T03:13:25;2.22;;;1.35;;
64186;SDS011;50491;39.484;-8.540;2023-08-17T03:18:03;5.68;;;1.90;;
64186;SDS011;50491;39.484;-8.540;2023-08-17T03:20:12;2.65;;;1.50;;
64186;SDS011;50491;39.484;-8.540;2023-08-17T03:29:48;6.30;;;2.53;;
64186;SDS011;50491;39.484;-8.540;2023-08-17T03:31:48;2.75;;;1.70;;
64186;SDS011;50491;39.484;-8.540;2023-08-17T03:33:50;4.35;;;2.20;;
64186;SDS011;50491;39.484;-8.540;2023-08-17T03:35:55;6.10;;;1.60;;
64186;SDS011;50491;39.484;-8.540;2023-08-17T03:38:14;3.45;;;1.50;;
64186;SDS011;50491;39.484;-8.540;2023-08-17T03:40:34;4.43;;;1.77;;
64186;SDS011;50491;39.484;-8.540;2023-08-17T03:42:50;3.83;;;1.50;;
64186;SDS011;50491;39.484;-8.540;2023-08-17T03:45:09;4.45;;;1.40;;
64186;SDS011;50491;39.484;-8.540;2023-08-17T03:47:09;5.05;;;1.48;;
64186;SDS011;50491;39.484;-8.540;2023-08-17T03:54:08;3.08;;;1.60;;
64186;SDS011;50491;39.484;-8.540;2023-08-17T03:56:27;2.45;;;1.75;;
64186;SDS011;50491;39.484;-8.540;2023-08-17T03:58:27;3.78;;;1.70;;
64186;SDS011;50491;39.484;-8.540;2023-08-17T04:00:58;2.17;;;1.65;;
64186;SDS011;50491;39.484;-8.540;2023-08-17T04:03:02;3.75;;;1.63;;
64186;SDS011;50491;39.484;-8.540;2023-08-17T04:05:03;5.70;;;1.70;;
64186;SDS011;50491;39.484;-8.540;2023-08-17T04:07:04;8.32;;;2.05;;
64186;SDS011;50491;39.484;-8.540;2023-08-17T04:09:07;1.98;;;1.30;;
64186;SDS011;50491;39.484;-8.540;2023-08-17T04:11:07;7.20;;;1.65;;
64186;SDS011;50491;39.484;-8.540;2023-08-17T04:13:08;4.35;;;1.80;;
64186;SDS011;50491;39.484;-8.540;2023-08-17T04:15:09;4.00;;;1.80;;
64186;SDS011;50491;39.484;-8.540;2023-08-17T04:17:29;3.70;;;1.70;;
64186;SDS011;50491;39.484;-8.540;2023-08-17T04:19:30;3.33;;;1.45;;
64186;SDS011;50491;39.484;-8.540;2023-08-17T04:21:30;3.75;;;1.40;;
64186;SDS011;50491;39.484;-8.540;2023-08-17T04:23:31;19.27;;;2.42;;
64186;SDS011;50491;39.484;-8.540;2023-08-17T04:25:50;2.25;;;1.33;;
64186;SDS011;50491;39.484;-8.540;2023-08-17T04:27:51;2.70;;;1.30;;
64186;SDS011;50491;39.484;-8.540;2023-08-17T04:30:17;1.80;;;1.30;;
64186;SDS011;50491;39.484;-8.540;2023-08-17T04:32:37;5.60;;;1.63;;
64186;SDS011;50491;39.484;-8.540;2023-08-17T04:34:56;3.17;;;1.73;;
64186;SDS011;50491;39.484;-8.540;2023-08-17T04:37:15;3.08;;;1.98;;
64186;SDS011;50491;39.484;-8.540;2023-08-17T04:39:34;5.00;;;1.70;;
64186;SDS011;50491;39.484;-8.540;2023-08-17T04:41:54;2.45;;;1.60;;
64186;SDS011;50491;39.484;-8.540;2023-08-17T04:44:01;4.13;;;1.58;;
64186;SDS011;50491;39.484;-8.540;2023-08-17T04:46:02;1.90;;;1.48;;
64186;SDS011;50491;39.484;-8.540;2023-08-17T04:48:04;2.08;;;1.90;;
64186;SDS011;50491;39.484;-8.540;2023-08-17T04:50:24;6.53;;;2.50;;
64186;SDS011;50491;39.484;-8.540;2023-08-17T04:52:27;3.40;;;1.73;;
64186;SDS011;50491;39.484;-8.540;2023-08-17T04:54:46;2.65;;;1.58;;
64186;SDS011;50491;39.484;-8.540;2023-08-17T04:56:47;3.78;;;2.10;;
64186;SDS011;50491;39.484;-8.540;2023-08-17T04:59:06;6.00;;;2.22;;
64186;SDS011;50491;39.484;-8.540;2023-08-17T05:01:06;2.33;;;1.65;;
64186;SDS011;50491;39.484;-8.540;2023-08-17T05:03:26;3.47;;;2.00;;
64186;SDS011;50491;39.484;-8.540;2023-08-17T05:05:46;8.85;;;2.10;;
64186;SDS011;50491;39.484;-8.540;2023-08-17T05:07:47;4.40;;;1.80;;
64186;SDS011;50491;39.484;-8.540;2023-08-17T05:09:48;3.10;;;1.77;;
64186;SDS011;50491;39.484;-8.540;2023-08-17T05:11:51;2.67;;;1.90;;
64186;SDS011;50491;39.484;-8.540;2023-08-17T05:14:09;6.32;;;2.13;;
64186;SDS011;50491;39.484;-8.540;2023-08-17T05:16:28;8.60;;;2.28;;
64186;SDS011;50491;39.484;-8.540;2023-08-17T05:18:47;3.95;;;1.83;;
64186;SDS011;50491;39.484;-8.540;2023-08-17T05:20:50;2.55;;;1.83;;
64186;SDS011;50491;39.484;-8.540;2023-08-17T05:22:51;4.00;;;1.83;;
64186;SDS011;50491;39.484;-8.540;2023-08-17T05:24:52;3.75;;;1.85;;
64186;SDS011;50491;39.484;-8.540;2023-08-17T05:26:53;1.63;;;1.52;;
64186;SDS011;50491;39.484;-8.540;2023-08-17T05:29:12;2.45;;;1.70;;
64186;SDS011;50491;39.484;-8.540;2023-08-17T05:31:14;4.43;;;1.75;;
64186;SDS011;50491;39.484;-8.540;2023-08-17T05:33:18;5.60;;;2.08;;
64186;SDS011;50491;39.484;-8.540;2023-08-17T05:35:19;2.13;;;1.77;;
64186;SDS011;50491;39.484;-8.540;2023-08-17T05:37:20;4.78;;;1.77;;
64186;SDS011;50491;39.484;-8.540;2023-08-17T05:39:39;4.43;;;1.60;;
64186;SDS011;50491;39.484;-8.540;2023-08-17T05:41:41;6.80;;;1.65;;
64186;SDS011;50491;39.484;-8.540;2023-08-17T05:43:41;4.50;;;2.45;;
64186;SDS011;50491;39.484;-8.540;2023-08-17T05:45:42;5.03;;;2.00;;
64186;SDS011;50491;39.484;-8.540;2023-08-17T05:47:43;7.70;;;2.03;;
64186;SDS011;50491;39.484;-8.540;2023-08-17T05:50:10;4.53;;;2.33;;
64186;SDS011;50491;39.484;-8.540;2023-08-17T05:52:36;3.22;;;1.67;;
64186;SDS011;50491;39.484;-8.540;2023-08-17T05:54:37;5.10;;;1.70;;
64186;SDS011;50491;39.484;-8.540;2023-08-17T05:56:38;4.60;;;1.70;;
64186;SDS011;50491;39.484;-8.540;2023-08-17T05:58:38;3.92;;;1.77;;
64186;SDS011;50491;39.484;-8.540;2023-08-17T06:00:39;6.18;;;2.08;;
64186;SDS011;50491;39.484;-8.540;2023-08-17T06:02:41;4.75;;;1.80;;
64186;SDS011;50491;39.484;-8.540;2023-08-17T06:04:42;6.55;;;1.85;;
64186;SDS011;50491;39.484;-8.540;2023-08-17T06:09:20;2.92;;;1.83;;
64186;SDS011;50491;39.484;-8.540;2023-08-17T06:11:39;6.38;;;1.75;;
64186;SDS011;50491;39.484;-8.540;2023-08-17T06:16:24;5.40;;;1.77;;
64186;SDS011;50491;39.484;-8.540;2023-08-17T06:29:12;3.35;;;2.00;;
64186;SDS011;50491;39.484;-8.540;2023-08-17T06:31:16;3.53;;;2.05;;
64186;SDS011;50491;39.484;-8.540;2023-08-17T06:33:41;7.28;;;2.47;;
64186;SDS011;50491;39.484;-8.540;2023-08-17T06:35:41;3.30;;;2.15;;
64186;SDS011;50491;39.484;-8.540;2023-08-17T06:38:01;3.53;;;1.73;;
64186;SDS011;50491;39.484;-8.540;2023-08-17T06:40:03;4.90;;;1.65;;
64186;SDS011;50491;39.484;-8.540;2023-08-17T06:42:05;8.05;;;2.17;;
64186;SDS011;50491;39.484;-8.540;2023-08-17T06:44:06;6.43;;;1.80;;
64186;SDS011;50491;39.484;-8.540;2023-08-17T06:46:07;6.70;;;2.55;;
64186;SDS011;50491;39.484;-8.540;2023-08-17T06:48:26;8.43;;;3.03;;
64186;SDS011;50491;39.484;-8.540;2023-08-17T06:50:45;5.07;;;2.13;;
64186;SDS011;50491;39.484;-8.540;2023-08-17T06:52:45;4.57;;;1.77;;
64186;SDS011;50491;39.484;-8.540;2023-08-17T06:54:47;4.97;;;2.22;;
64186;SDS011;50491;39.484;-8.540;2023-08-17T06:56:48;4.68;;;1.95;;
64186;SDS011;50491;39.484;-8.540;2023-08-17T06:58:49;5.00;;;2.20;;
64186;SDS011;50491;39.484;-8.540;2023-08-17T07:00:50;8.45;;;2.10;;
64186;SDS011;50491;39.484;-8.540;2023-08-17T07:03:09;5.38;;;1.92;;
64186;SDS011;50491;39.484;-8.540;2023-08-17T07:07:54;4.72;;;1.83;;
64186;SDS011;50491;39.484;-8.540;2023-08-17T07:09:55;1.45;;;1.35;;
64186;SDS011;50491;39.484;-8.540;2023-08-17T07:12:15;3.83;;;1.70;;
64186;SDS011;50491;39.484;-8.540;2023-08-17T07:14:16;3.35;;;1.60;;
64186;SDS011;50491;39.484;-8.540;2023-08-17T07:19:13;7.82;;;1.60;;
64186;SDS011;50491;39.484;-8.540;2023-08-17T07:21:32;11.65;;;2.45;;
64186;SDS011;50491;39.484;-8.540;2023-08-17T07:23:53;5.30;;;1.30;;
64186;SDS011;50491;39.484;-8.540;2023-08-17T07:26:31;3.10;;;1.10;;
64186;SDS011;50491;39.484;-8.540;2023-08-17T07:28:32;10.90;;;2.25;;
64186;SDS011;50491;39.484;-8.540;2023-08-17T07:32:52;3.38;;;1.48;;
64186;SDS011;50491;39.484;-8.540;2023-08-17T07:34:53;3.92;;;1.73;;
64186;SDS011;50491;39.484;-8.540;2023-08-17T07:36:54;3.45;;;1.23;;
64186;SDS011;50491;39.484;-8.540;2023-08-17T07:38:55;4.70;;;1.50;;
64186;SDS011;50491;39.484;-8.540;2023-08-17T07:41:14;1.77;;;1.33;;
64186;SDS011;50491;39.484;-8.540;2023-08-17T07:43:14;4.22;;;1.50;;
64186;SDS011;50491;39.484;-8.540;2023-08-17T07:45:34;3.55;;;1.52;;
64186;SDS011;50491;39.484;-8.540;2023-08-17T07:47:53;6.68;;;1.85;;
64186;SDS011;50491;39.484;-8.540;2023-08-17T07:49:54;4.03;;;1.70;;
64186;SDS011;50491;39.484;-8.540;2023-08-17T07:51:54;4.03;;;1.20;;
64186;SDS011;50491;39.484;-8.540;2023-08-17T07:53:55;6.95;;;1.92;;
64186;SDS011;50491;39.484;-8.540;2023-08-17T07:56:14;5.97;;;1.60;;
64186;SDS011;50491;39.484;-8.540;2023-08-17T07:58:15;3.75;;;1.60;;
64186;SDS011;50491;39.484;-8.540;2023-08-17T08:00:15;6.50;;;1.65;;
64186;SDS011;50491;39.484;-8.540;2023-08-17T08:02:17;7.07;;;1.63;;
64186;SDS011;50491;39.484;-8.540;2023-08-17T08:07:33;7.93;;;1.92;;
64186;SDS011;50491;39.484;-8.540;2023-08-17T08:09:52;3.88;;;1.42;;
64186;SDS011;50491;39.484;-8.540;2023-08-17T08:12:05;2.72;;;1.00;;
64186;SDS011;50491;39.484;-8.540;2023-08-17T08:14:08;5.05;;;1.25;;
64186;SDS011;50491;39.484;-8.540;2023-08-17T08:24:04;5.97;;;1.30;;
64186;SDS011;50491;39.484;-8.540;2023-08-17T08:26:23;5.45;;;1.60;;
64186;SDS011;50491;39.484;-8.540;2023-08-17T08:28:24;2.72;;;1.13;;
64186;SDS011;50491;39.484;-8.540;2023-08-17T08:30:44;7.10;;;1.42;;
64186;SDS011;50491;39.484;-8.540;2023-08-17T08:32:44;6.30;;;2.17;;
64186;SDS011;50491;39.484;-8.540;2023-08-17T08:34:45;3.05;;;1.05;;
64186;SDS011;50491;39.484;-8.540;2023-08-17T08:36:48;3.75;;;1.65;;
64186;SDS011;50491;39.484;-8.540;2023-08-17T08:38:49;2.40;;;1.00;;
64186;SDS011;50491;39.484;-8.540;2023-08-17T08:40:51;2.80;;;1.00;;
64186;SDS011;50491;39.484;-8.540;2023-08-17T08:42:51;9.07;;;1.20;;
64186;SDS011;50491;39.484;-8.540;2023-08-17T08:47:30;4.35;;;1.15;;
64186;SDS011;50491;39.484;-8.540;2023-08-17T08:49:57;4.80;;;1.75;;
64186;SDS011;50491;39.484;-8.540;2023-08-17T08:52:01;2.05;;;1.20;;
64186;SDS011;50491;39.484;-8.540;2023-08-17T08:54:04;1.70;;;1.30;;
64186;SDS011;50491;39.484;-8.540;2023-08-17T08:56:26;2.15;;;1.00;;
64186;SDS011;50491;39.484;-8.540;2023-08-17T09:00:52;1.23;;;1.05;;
64186;SDS011;50491;39.484;-8.540;2023-08-17T09:02:54;2.72;;;1.08;;
64186;SDS011;50491;39.484;-8.540;2023-08-17T09:04:56;2.53;;;0.80;;
64186;SDS011;50491;39.484;-8.540;2023-08-17T09:06:57;4.70;;;1.10;;
64186;SDS011;50491;39.484;-8.540;2023-08-17T09:08:58;2.38;;;1.00;;
64186;SDS011;50491;39.484;-8.540;2023-08-17T09:11:18;3.47;;;1.13;;
64186;SDS011;50491;39.484;-8.540;2023-08-17T09:13:38;4.03;;;1.00;;
64186;SDS011;50491;39.484;-8.540;2023-08-17T09:15:57;4.35;;;1.08;;
64186;SDS011;50491;39.484;-8.540;2023-08-17T09:17:59;1.77;;;0.90;;
64186;SDS011;50491;39.484;-8.540;2023-08-17T09:23:18;3.50;;;1.02;;
64186;SDS011;50491;39.484;-8.540;2023-08-17T09:25:22;1.80;;;1.00;;
64186;SDS011;50491;39.484;-8.540;2023-08-17T09:27:42;2.15;;;0.80;;
64186;SDS011;50491;39.484;-8.540;2023-08-17T09:30:05;3.47;;;0.73;;
64186;SDS011;50491;39.484;-8.540;2023-08-17T09:32:29;2.88;;;1.23;;
64186;SDS011;50491;39.484;-8.540;2023-08-17T09:34:30;1.95;;;0.80;;
64186;SDS011;50491;39.484;-8.540;2023-08-17T09:36:50;4.00;;;0.95;;
64186;SDS011;50491;39.484;-8.540;2023-08-17T09:39:10;12.10;;;1.55;;
64186;SDS011;50491;39.484;-8.540;2023-08-17T09:41:29;5.47;;;0.75;;
64186;SDS011;50491;39.484;-8.540;2023-08-17T09:43:48;5.68;;;1.30;;
64186;SDS011;50491;39.484;-8.540;2023-08-17T09:46:09;2.58;;;1.10;;
64186;SDS011;50491;39.484;-8.540;2023-08-17T09:48:28;2.40;;;0.70;;
64186;SDS011;50491;39.484;-8.540;2023-08-17T09:50:48;6.20;;;0.90;;
64186;SDS011;50491;39.484;-8.540;2023-08-17T09:53:07;2.75;;;1.00;;
64186;SDS011;50491;39.484;-8.540;2023-08-17T09:58:54;5.97;;;1.15;;
64186;SDS011;50491;39.484;-8.540;2023-08-17T10:01:13;2.70;;;1.10;;
64186;SDS011;50491;39.484;-8.540;2023-08-17T10:03:15;2.45;;;1.23;;
64186;SDS011;50491;39.484;-8.540;2023-08-17T10:05:35;1.15;;;0.68;;
64186;SDS011;50491;39.484;-8.540;2023-08-17T10:07:57;3.58;;;0.90;;
64186;SDS011;50491;39.484;-8.540;2023-08-17T10:10:19;3.15;;;1.27;;
64186;SDS011;50491;39.484;-8.540;2023-08-17T10:12:44;3.47;;;1.20;;
64186;SDS011;50491;39.484;-8.540;2023-08-17T10:15:07;2.63;;;0.98;;
64186;SDS011;50491;39.484;-8.540;2023-08-17T10:17:09;1.48;;;0.98;;
64186;SDS011;50491;39.484;-8.540;2023-08-17T10:22:08;3.78;;;0.70;;
64186;SDS011;50491;39.484;-8.540;2023-08-17T10:26:51;2.13;;;0.73;;
64186;SDS011;50491;39.484;-8.540;2023-08-17T10:29:11;4.43;;;0.70;;
64186;SDS011;50491;39.484;-8.540;2023-08-17T10:31:33;1.30;;;0.82;;
64186;SDS011;50491;39.484;-8.540;2023-08-17T10:33:45;1.63;;;0.85;;
64186;SDS011;50491;39.484;-8.540;2023-08-17T10:35:47;2.15;;;0.70;;
64186;SDS011;50491;39.484;-8.540;2023-08-17T10:43:05;1.20;;;0.60;;
64186;SDS011;50491;39.484;-8.540;2023-08-17T10:47:40;5.03;;;0.77;;
64186;SDS011;50491;39.484;-8.540;2023-08-17T10:52:10;1.63;;;0.70;;
64186;SDS011;50491;39.484;-8.540;2023-08-17T10:57:34;3.45;;;0.50;;
64186;SDS011;50491;39.484;-8.540;2023-08-17T10:59:36;2.10;;;0.60;;
64186;SDS011;50491;39.484;-8.540;2023-08-17T11:01:40;4.15;;;1.60;;
64186;SDS011;50491;39.484;-8.540;2023-08-17T11:03:41;1.83;;;0.80;;
64186;SDS011;50491;39.484;-8.540;2023-08-17T11:07:58;2.03;;;0.93;;
64186;SDS011;50491;39.484;-8.540;2023-08-17T11:09:59;2.05;;;1.02;;
64186;SDS011;50491;39.484;-8.540;2023-08-17T11:12:02;10.40;;;0.90;;
64186;SDS011;50491;39.484;-8.540;2023-08-17T11:14:21;1.48;;;0.60;;
64186;SDS011;50491;39.484;-8.540;2023-08-17T11:16:22;3.03;;;0.63;;
64186;SDS011;50491;39.484;-8.540;2023-08-17T11:18:42;1.52;;;0.90;;
64186;SDS011;50491;39.484;-8.540;2023-08-17T11:20:44;2.03;;;0.85;;
64186;SDS011;50491;39.484;-8.540;2023-08-17T11:22:45;6.00;;;0.90;;
64186;SDS011;50491;39.484;-8.540;2023-08-17T11:24:46;1.95;;;0.70;;
64186;SDS011;50491;39.484;-8.540;2023-08-17T11:26:58;1.63;;;0.55;;
64186;SDS011;50491;39.484;-8.540;2023-08-17T11:28:59;1.45;;;0.73;;
64186;SDS011;50491;39.484;-8.540;2023-08-17T11:31:01;3.35;;;0.40;;
64186;SDS011;50491;39.484;-8.540;2023-08-17T11:33:09;5.43;;;0.80;;
64186;SDS011;50491;39.484;-8.540;2023-08-17T11:35:10;3.28;;;0.90;;
64186;SDS011;50491;39.484;-8.540;2023-08-17T11:37:11;2.67;;;0.40;;
64186;SDS011;50491;39.484;-8.540;2023-08-17T11:39:12;2.92;;;0.70;;
64186;SDS011;50491;39.484;-8.540;2023-08-17T11:41:14;1.42;;;0.98;;
64186;SDS011;50491;39.484;-8.540;2023-08-17T11:43:16;3.50;;;0.50;;
64186;SDS011;50491;39.484;-8.540;2023-08-17T11:45:36;1.17;;;0.47;;
64186;SDS011;50491;39.484;-8.540;2023-08-17T11:47:37;1.20;;;0.70;;
64186;SDS011;50491;39.484;-8.540;2023-08-17T11:49:41;1.75;;;0.70;;
64186;SDS011;50491;39.484;-8.540;2023-08-17T11:51:44;2.17;;;0.57;;
64186;SDS011;50491;39.484;-8.540;2023-08-17T11:53:45;8.02;;;0.65;;
64186;SDS011;50491;39.484;-8.540;2023-08-17T11:55:48;3.75;;;0.60;;
64186;SDS011;50491;39.484;-8.540;2023-08-17T11:58:07;4.93;;;0.80;;
64186;SDS011;50491;39.484;-8.540;2023-08-17T12:00:08;2.35;;;0.93;;
64186;SDS011;50491;39.484;-8.540;2023-08-17T12:02:10;1.50;;;0.80;;
64186;SDS011;50491;39.484;-8.540;2023-08-17T12:09:11;1.13;;;0.70;;
64186;SDS011;50491;39.484;-8.540;2023-08-17T12:11:17;6.15;;;0.60;;
64186;SDS011;50491;39.484;-8.540;2023-08-17T12:13:18;2.83;;;0.28;;
64186;SDS011;50491;39.484;-8.540;2023-08-17T12:15:19;5.55;;;0.60;;
64186;SDS011;50491;39.484;-8.540;2023-08-17T12:17:28;1.50;;;0.70;;
64186;SDS011;50491;39.484;-8.540;2023-08-17T12:19:34;0.60;;;0.40;;
64186;SDS011;50491;39.484;-8.540;2023-08-17T12:21:34;3.00;;;0.60;;
64186;SDS011;50491;39.484;-8.540;2023-08-17T12:23:36;3.22;;;0.50;;
64186;SDS011;50491;39.484;-8.540;2023-08-17T12:25:55;1.48;;;0.60;;
64186;SDS011;50491;39.484;-8.540;2023-08-17T12:27:57;2.05;;;0.47;;
64186;SDS011;50491;39.484;-8.540;2023-08-17T12:35:52;2.58;;;0.50;;
64186;SDS011;50491;39.484;-8.540;2023-08-17T12:40:12;1.58;;;0.40;;
64186;SDS011;50491;39.484;-8.540;2023-08-17T12:42:13;7.32;;;0.50;;
64186;SDS011;50491;39.484;-8.540;2023-08-17T12:44:14;1.30;;;0.45;;
64186;SDS011;50491;39.484;-8.540;2023-08-17T12:49:41;2.17;;;0.52;;
64186;SDS011;50491;39.484;-8.540;2023-08-17T12:52:24;1.27;;;0.40;;
64186;SDS011;50491;39.484;-8.540;2023-08-17T12:54:26;3.75;;;0.55;;
64186;SDS011;50491;39.484;-8.540;2023-08-17T12:56:42;1.70;;;0.50;;
64186;SDS011;50491;39.484;-8.540;2023-08-17T12:58:44;1.40;;;0.40;;
64186;SDS011;50491;39.484;-8.540;2023-08-17T13:01:03;2.05;;;0.50;;
64186;SDS011;50491;39.484;-8.540;2023-08-17T13:03:22;1.30;;;0.40;;
64186;SDS011;50491;39.484;-8.540;2023-08-17T13:05:23;1.08;;;0.50;;
64186;SDS011;50491;39.484;-8.540;2023-08-17T13:07:24;0.80;;;0.45;;
64186;SDS011;50491;39.484;-8.540;2023-08-17T13:09:24;1.38;;;0.50;;
64186;SDS011;50491;39.484;-8.540;2023-08-17T13:11:34;0.30;;;0.30;;
64186;SDS011;50491;39.484;-8.540;2023-08-17T13:13:34;1.75;;;0.50;;
64186;SDS011;50491;39.484;-8.540;2023-08-17T13:18:50;1.00;;;0.70;;
64186;SDS011;50491;39.484;-8.540;2023-08-17T13:21:09;7.72;;;0.85;;
64186;SDS011;50491;39.484;-8.540;2023-08-17T13:23:10;3.05;;;0.40;;
64186;SDS011;50491;39.484;-8.540;2023-08-17T13:25:12;6.38;;;0.55;;
64186;SDS011;50491;39.484;-8.540;2023-08-17T13:27:16;3.08;;;0.75;;
64186;SDS011;50491;39.484;-8.540;2023-08-17T13:29:16;0.98;;;0.52;;
64186;SDS011;50491;39.484;-8.540;2023-08-17T13:31:18;2.88;;;0.47;;
64186;SDS011;50491;39.484;-8.540;2023-08-17T13:33:19;1.00;;;0.40;;
64186;SDS011;50491;39.484;-8.540;2023-08-17T13:35:20;4.68;;;0.70;;
64186;SDS011;50491;39.484;-8.540;2023-08-17T13:37:21;0.90;;;0.57;;
64186;SDS011;50491;39.484;-8.540;2023-08-17T13:39:42;1.58;;;0.80;;
64186;SDS011;50491;39.484;-8.540;2023-08-17T13:42:05;1.60;;;0.73;;
64186;SDS011;50491;39.484;-8.540;2023-08-17T13:44:30;1.45;;;0.90;;
64186;SDS011;50491;39.484;-8.540;2023-08-17T13:46:51;2.42;;;0.60;;
64186;SDS011;50491;39.484;-8.540;2023-08-17T13:49:10;2.08;;;0.60;;
64186;SDS011;50491;39.484;-8.540;2023-08-17T13:51:11;1.60;;;0.40;;
64186;SDS011;50491;39.484;-8.540;2023-08-17T13:53:12;3.38;;;0.93;;
64186;SDS011;50491;39.484;-8.540;2023-08-17T13:55:12;0.88;;;0.40;;
64186;SDS011;50491;39.484;-8.540;2023-08-17T13:57:13;4.63;;;0.68;;
64186;SDS011;50491;39.484;-8.540;2023-08-17T13:59:14;1.75;;;0.38;;
64186;SDS011;50491;39.484;-8.540;2023-08-17T14:01:14;0.85;;;0.30;;
64186;SDS011;50491;39.484;-8.540;2023-08-17T14:03:35;0.88;;;0.57;;
64186;SDS011;50491;39.484;-8.540;2023-08-17T14:05:36;3.38;;;1.70;;
64186;SDS011;50491;39.484;-8.540;2023-08-17T14:07:56;3.65;;;0.60;;
64186;SDS011;50491;39.484;-8.540;2023-08-17T14:09:57;4.78;;;0.73;;
64186;SDS011;50491;39.484;-8.540;2023-08-17T14:11:57;1.98;;;0.30;;
64186;SDS011;50491;39.484;-8.540;2023-08-17T14:13:59;1.05;;;0.60;;
64186;SDS011;50491;39.484;-8.540;2023-08-17T14:16:00;2.22;;;0.50;;
64186;SDS011;50491;39.484;-8.540;2023-08-17T14:18:01;0.98;;;0.60;;
64186;SDS011;50491;39.484;-8.540;2023-08-17T14:20:02;1.00;;;0.50;;
64186;SDS011;50491;39.484;-8.540;2023-08-17T14:22:04;1.20;;;0.55;;
64186;SDS011;50491;39.484;-8.540;2023-08-17T14:24:06;1.42;;;0.43;;
64186;SDS011;50491;39.484;-8.540;2023-08-17T14:26:08;0.98;;;0.50;;
64186;SDS011;50491;39.484;-8.540;2023-08-17T14:28:08;1.77;;;0.88;;
64186;SDS011;50491;39.484;-8.540;2023-08-17T14:30:09;2.53;;;0.88;;
64186;SDS011;50491;39.484;-8.540;2023-08-17T14:32:10;5.03;;;0.63;;
64186;SDS011;50491;39.484;-8.540;2023-08-17T14:34:11;1.30;;;0.70;;
64186;SDS011;50491;39.484;-8.540;2023-08-17T14:36:13;2.95;;;0.77;;
64186;SDS011;50491;39.484;-8.540;2023-08-17T14:38:14;1.58;;;0.50;;
64186;SDS011;50491;39.484;-8.540;2023-08-17T14:40:14;4.07;;;0.80;;
64186;SDS011;50491;39.484;-8.540;2023-08-17T14:42:15;2.13;;;0.68;;
64186;SDS011;50491;39.484;-8.540;2023-08-17T14:44:16;5.53;;;0.80;;
64186;SDS011;50491;39.484;-8.540;2023-08-17T14:46:36;1.48;;;0.80;;